createdAt,value
2022-08-23T00:02:23.445Z,4.70
2022-08-23T00:05:09.368Z,4.20
2022-08-23T00:07:52.569Z,4.50
2022-08-23T00:10:34.509Z,4.90
2022-08-23T00:13:17.589Z,4.40
2022-08-23T00:16:00.756Z,4.30
2022-08-23T00:18:42.712Z,4.70
2022-08-23T00:21:31.321Z,5.10
2022-08-23T00:24:14.431Z,5.40
2022-08-23T00:27:07.957Z,5.50
2022-08-23T00:29:52.982Z,5.40
2022-08-23T00:32:37.689Z,5.60
2022-08-23T00:35:26.805Z,5.10
2022-08-23T00:38:33.827Z,5.00
2022-08-23T00:41:11.843Z,5.00
2022-08-23T00:44:14.734Z,5.00
2022-08-23T00:47:24.172Z,5.40
2022-08-23T00:50:19.552Z,5.80
2022-08-23T00:53:32.305Z,5.10
2022-08-23T00:56:20.854Z,4.90
2022-08-23T00:59:03.570Z,5.00
2022-08-23T01:01:45.589Z,5.00
2022-08-23T01:04:33.025Z,5.20
2022-08-23T01:07:26.870Z,5.80
2022-08-23T01:10:21.771Z,5.10
2022-08-23T01:13:15.137Z,5.10
2022-08-23T01:16:03.382Z,5.20
2022-08-23T01:18:47.943Z,5.40
2022-08-23T01:21:51.440Z,5.30
2022-08-23T01:25:07.111Z,6.60
2022-08-23T01:27:41.343Z,5.80
2022-08-23T01:30:32.779Z,7.20
2022-08-23T01:33:15.170Z,6.30
2022-08-23T01:35:58.897Z,6.80
2022-08-23T01:38:43.467Z,7.00
2022-08-23T01:41:26.489Z,6.80
2022-08-23T01:44:09.513Z,6.80
2022-08-23T01:46:53.087Z,6.40
2022-08-23T01:49:39.857Z,6.00
2022-08-23T01:52:21.854Z,7.80
2022-08-23T01:55:06.208Z,8.30
2022-08-23T01:57:56.193Z,7.90
2022-08-23T02:00:41.082Z,6.20
2022-08-23T02:03:23.002Z,7.20
2022-08-23T02:06:06.089Z,6.90
2022-08-23T02:09:04.256Z,6.10
2022-08-23T02:11:50.044Z,7.50
2022-08-23T02:14:32.041Z,7.30
2022-08-23T02:17:16.600Z,7.10
2022-08-23T02:20:00.236Z,7.20
2022-08-23T02:22:42.235Z,8.10
2022-08-23T02:25:24.130Z,9.10
2022-08-23T02:28:06.435Z,9.20
2022-08-23T02:30:49.151Z,9.70
2022-08-23T02:33:31.763Z,8.90
2022-08-23T02:36:14.451Z,8.00
2022-08-23T02:38:57.140Z,8.90
2022-08-23T02:41:39.395Z,8.40
2022-08-23T02:44:22.828Z,8.70
2022-08-23T02:47:07.898Z,8.10
2022-08-23T02:49:51.431Z,7.40
2022-08-23T02:52:36.810Z,8.30
2022-08-23T02:55:19.471Z,7.30
2022-08-23T02:58:01.530Z,7.70
2022-08-23T03:00:49.028Z,8.00
2022-08-23T03:03:31.152Z,7.00
2022-08-23T03:06:25.324Z,8.10
2022-08-23T03:09:08.770Z,8.20
2022-08-23T03:11:51.228Z,8.00
2022-08-23T03:14:35.425Z,7.90
2022-08-23T03:17:20.700Z,8.00
2022-08-23T03:20:04.337Z,8.70
2022-08-23T03:22:48.300Z,8.80
2022-08-23T03:25:38.105Z,8.80
2022-08-23T03:28:35.119Z,9.30
2022-08-23T03:31:19.570Z,8.50
2022-08-23T03:34:32.288Z,8.70
2022-08-23T03:37:14.900Z,8.30
2022-08-23T03:39:56.831Z,8.00
2022-08-23T03:42:40.125Z,9.30
2022-08-23T03:45:22.326Z,9.70
2022-08-23T03:48:04.939Z,9.90
2022-08-23T03:50:47.655Z,10.00
2022-08-23T03:53:30.164Z,9.80
2022-08-23T03:56:20.969Z,10.40
2022-08-23T03:59:08.292Z,9.20
2022-08-23T04:01:50.451Z,10.00
2022-08-23T04:04:33.218Z,10.20
2022-08-23T04:07:43.880Z,9.40
2022-08-23T04:10:26.192Z,9.80
2022-08-23T04:13:11.767Z,9.40
2022-08-23T04:15:53.765Z,9.60
2022-08-23T04:18:36.892Z,10.20
2022-08-23T04:21:22.714Z,8.50
2022-08-23T04:24:05.700Z,8.90
2022-08-23T04:26:49.602Z,9.40
2022-08-23T04:29:34.253Z,8.40
2022-08-23T04:32:26.619Z,9.40
2022-08-23T04:35:12.077Z,9.90
2022-08-23T04:37:54.537Z,8.80
2022-08-23T04:40:55.679Z,9.10
2022-08-23T04:43:37.575Z,9.70
2022-08-23T04:46:19.470Z,9.20
2022-08-23T04:49:02.389Z,9.30
2022-08-23T04:51:53.968Z,10.10
2022-08-23T04:54:36.422Z,9.60
2022-08-23T04:57:42.735Z,9.60
2022-08-23T05:00:27.930Z,9.80
2022-08-23T05:03:10.630Z,10.60
2022-08-23T05:05:54.099Z,11.10
2022-08-23T05:08:37.644Z,10.80
2022-08-23T05:11:19.950Z,9.70
2022-08-23T05:14:02.612Z,10.90
2022-08-23T05:16:44.768Z,10.40
2022-08-23T05:19:26.765Z,9.60
2022-08-23T05:22:09.070Z,10.50
2022-08-23T05:25:21.642Z,8.60
2022-08-23T05:28:03.795Z,9.70
2022-08-23T05:30:51.051Z,9.60
2022-08-23T05:33:39.556Z,9.50
2022-08-23T05:36:22.477Z,10.50
2022-08-23T05:39:06.157Z,8.90
2022-08-23T05:41:48.830Z,9.80
2022-08-23T05:44:34.320Z,9.40
2022-08-23T05:47:23.620Z,9.50
2022-08-23T05:50:33.121Z,10.70
2022-08-23T05:53:17.107Z,10.30
2022-08-23T05:56:12.989Z,10.20
2022-08-23T05:58:59.930Z,9.10
2022-08-23T06:01:43.231Z,11.00
2022-08-23T06:04:31.578Z,10.60
2022-08-23T06:07:14.805Z,11.10
2022-08-23T06:09:56.906Z,11.70
2022-08-23T06:12:39.212Z,12.90
2022-08-23T06:15:21.219Z,10.90
2022-08-23T06:18:03.515Z,10.60
2022-08-23T06:20:46.005Z,12.20
2022-08-23T06:23:37.137Z,11.30
2022-08-23T06:26:22.622Z,12.10
2022-08-23T06:29:08.051Z,11.60
2022-08-23T06:31:52.551Z,12.40
2022-08-23T06:34:42.332Z,10.50
2022-08-23T06:37:24.638Z,12.00
2022-08-23T06:40:21.941Z,12.00
2022-08-23T06:43:13.211Z,12.60
2022-08-23T06:46:21.054Z,13.30
2022-08-23T06:49:07.769Z,13.30
2022-08-23T06:51:52.375Z,13.50
2022-08-23T06:54:46.771Z,14.30
2022-08-23T06:57:56.417Z,13.00
2022-08-23T07:00:57.215Z,14.60
2022-08-23T07:03:49.641Z,14.70
2022-08-23T07:06:58.101Z,14.20
2022-08-23T07:09:41.652Z,14.70
2022-08-23T07:12:23.958Z,14.50
2022-08-23T07:15:06.160Z,13.30
2022-08-23T07:17:48.365Z,16.30
2022-08-23T07:20:30.565Z,15.20
2022-08-23T07:23:13.029Z,14.70
2022-08-23T07:25:55.182Z,15.10
2022-08-23T07:28:41.271Z,15.30
2022-08-23T07:31:28.687Z,13.90
2022-08-23T07:34:11.206Z,14.80
2022-08-23T07:36:55.764Z,15.50
2022-08-23T07:39:37.659Z,15.90
2022-08-23T07:42:24.306Z,13.70
2022-08-23T07:45:12.832Z,15.40
2022-08-23T07:47:55.123Z,15.30
2022-08-23T07:50:54.564Z,15.30
2022-08-23T07:53:39.764Z,14.70
2022-08-23T07:56:23.084Z,17.80
2022-08-23T07:59:16.293Z,16.30
2022-08-23T08:02:18.007Z,14.70
2022-08-23T08:05:00.975Z,18.10
2022-08-23T08:07:43.793Z,16.10
2022-08-23T08:10:25.995Z,18.00
2022-08-23T08:13:09.324Z,15.70
2022-08-23T08:15:51.374Z,17.60
2022-08-23T08:18:33.936Z,17.60
2022-08-23T08:21:35.403Z,17.20
2022-08-23T08:24:23.839Z,16.80
2022-08-23T08:27:10.856Z,16.90
2022-08-23T08:29:52.954Z,17.60
2022-08-23T08:32:35.875Z,19.90
2022-08-23T08:35:18.282Z,19.60
2022-08-23T08:38:03.353Z,20.90
2022-08-23T08:40:46.302Z,18.80
2022-08-23T08:43:51.356Z,19.00
2022-08-23T08:46:43.044Z,16.90
2022-08-23T08:49:51.249Z,18.40
2022-08-23T08:52:38.869Z,18.70
2022-08-23T08:55:32.141Z,20.90
2022-08-23T08:58:46.806Z,18.20
2022-08-23T09:01:32.049Z,20.50
2022-08-23T09:04:14.898Z,19.10
2022-08-23T09:07:09.953Z,20.50
2022-08-23T09:10:03.894Z,20.10
2022-08-23T09:12:52.227Z,19.40
2022-08-23T09:16:03.850Z,19.30
2022-08-23T09:18:47.251Z,18.90
2022-08-23T09:21:39.285Z,18.00
2022-08-23T09:24:23.023Z,20.80
2022-08-23T09:27:26.218Z,20.40
2022-08-23T09:30:11.190Z,24.00
2022-08-23T09:32:57.076Z,20.60
2022-08-23T09:35:39.790Z,21.10
2022-08-23T09:38:22.096Z,23.70
2022-08-23T09:41:19.434Z,21.40
2022-08-23T09:44:08.557Z,21.90
2022-08-23T09:47:05.569Z,21.00
2022-08-23T09:49:52.688Z,21.60
2022-08-23T09:52:38.419Z,21.50
2022-08-23T09:55:35.421Z,22.10
2022-08-23T09:58:26.534Z,19.00
2022-08-23T10:01:15.221Z,23.20
2022-08-23T10:06:53.213Z,21.40
2022-08-23T10:09:35.724Z,18.50
2022-08-23T10:12:18.951Z,16.70
2022-08-23T10:15:00.845Z,20.80
2022-08-23T10:18:08.854Z,20.90
2022-08-23T10:21:03.452Z,18.40
2022-08-23T10:24:04.393Z,20.30
2022-08-23T10:27:30.370Z,22.70
2022-08-23T10:30:16.822Z,23.30
2022-08-23T10:33:20.326Z,20.80
2022-08-23T10:36:27.820Z,22.80
2022-08-23T10:39:22.722Z,26.30
2022-08-23T10:42:08.165Z,23.50
2022-08-23T10:44:59.923Z,23.80
2022-08-23T10:48:45.425Z,23.10
2022-08-23T10:51:49.325Z,23.60
2022-08-23T10:54:49.243Z,25.50
2022-08-23T10:57:38.462Z,21.80
2022-08-23T11:00:25.837Z,23.70
2022-08-23T11:03:28.653Z,24.60
2022-08-23T11:06:37.037Z,26.40
2022-08-23T11:09:21.089Z,25.20
2022-08-23T11:12:02.982Z,25.40
2022-08-23T11:15:11.090Z,27.00
2022-08-23T11:18:00.041Z,25.90
2022-08-23T11:20:49.425Z,27.00
2022-08-23T11:23:50.570Z,27.00
2022-08-23T11:26:40.453Z,29.00
2022-08-23T11:29:23.884Z,26.50
2022-08-23T11:32:17.502Z,27.60
2022-08-23T11:35:11.741Z,27.70
2022-08-23T11:37:59.903Z,30.40
2022-08-23T11:40:56.115Z,29.80
2022-08-23T11:43:44.516Z,29.40
2022-08-23T11:46:26.949Z,26.90
2022-08-23T11:49:44.559Z,30.50
2022-08-23T11:52:46.781Z,30.30
2022-08-23T11:55:50.585Z,28.50
2022-08-23T11:58:53.883Z,30.70
2022-08-23T12:01:39.161Z,29.60
2022-08-23T12:04:41.432Z,30.90
2022-08-23T12:07:47.186Z,30.60
2022-08-23T12:10:38.304Z,34.30
2022-08-23T12:13:20.838Z,32.30
2022-08-23T12:16:17.480Z,31.10
2022-08-23T12:19:06.942Z,34.50
2022-08-23T12:21:54.905Z,29.90
2022-08-23T12:24:52.015Z,29.70
2022-08-23T12:27:49.214Z,31.10
2022-08-23T12:30:44.229Z,29.30
2022-08-23T12:33:41.426Z,29.80
2022-08-23T12:36:45.237Z,27.60
2022-08-23T12:39:39.833Z,27.40
2022-08-23T12:42:37.314Z,26.60
2022-08-23T12:45:23.561Z,26.90
2022-08-23T12:48:08.771Z,28.30
2022-08-23T12:51:03.662Z,26.60
2022-08-23T12:53:45.976Z,30.70
2022-08-23T12:56:32.056Z,29.20
2022-08-23T12:59:34.335Z,27.70
2022-08-23T13:02:26.320Z,27.10
2022-08-23T13:05:32.227Z,26.90
2022-08-23T13:08:31.600Z,26.50
2022-08-23T13:11:21.105Z,29.30
2022-08-23T13:14:31.093Z,27.60
2022-08-23T13:20:01.404Z,23.40
2022-08-23T13:23:04.462Z,28.90
2022-08-23T13:25:46.700Z,24.80
2022-08-23T13:28:31.146Z,25.80
2022-08-23T13:31:13.278Z,26.40
2022-08-23T13:33:55.255Z,24.50
2022-08-23T13:36:37.098Z,24.00
2022-08-23T13:39:19.045Z,23.80
2022-08-23T13:42:03.739Z,23.00
2022-08-23T13:44:45.909Z,25.20
2022-08-23T13:47:35.824Z,23.10
2022-08-23T13:50:34.526Z,23.50
2022-08-23T13:53:17.100Z,25.70
2022-08-23T13:56:00.323Z,24.70
2022-08-23T13:58:42.728Z,23.90
2022-08-23T14:01:25.502Z,22.40
2022-08-23T14:04:07.810Z,22.60
2022-08-23T14:06:49.951Z,22.40
2022-08-23T14:09:33.896Z,23.70
2022-08-23T14:12:21.321Z,20.80
2022-08-23T14:15:05.640Z,21.60
2022-08-23T14:17:50.536Z,21.70
2022-08-23T14:20:34.004Z,21.90
2022-08-23T14:23:25.699Z,20.50
2022-08-23T14:26:08.415Z,19.80
2022-08-23T14:28:54.236Z,21.30
2022-08-23T14:31:36.403Z,22.10
2022-08-23T14:34:18.761Z,19.80
2022-08-23T14:40:02.928Z,21.00
2022-08-23T14:42:46.152Z,21.40
2022-08-23T14:45:28.206Z,23.30
2022-08-23T14:48:10.408Z,19.90
2022-08-23T14:50:53.327Z,20.40
2022-08-23T14:53:37.373Z,20.90
2022-08-23T14:56:21.765Z,20.60
2022-08-23T14:59:03.873Z,21.30
2022-08-23T15:01:49.315Z,21.20
2022-08-23T15:04:34.749Z,21.50
2022-08-23T15:07:18.612Z,22.70
2022-08-23T15:10:01.855Z,22.20
2022-08-23T15:13:12.963Z,22.90
2022-08-23T15:15:45.818Z,22.70
2022-08-23T15:18:32.748Z,21.70
2022-08-23T15:21:15.961Z,21.00
2022-08-23T15:23:58.060Z,18.90
2022-08-23T15:26:40.058Z,20.80
2022-08-23T15:29:21.954Z,22.50
2022-08-23T15:32:04.157Z,19.80
2022-08-23T15:34:46.573Z,20.20
2022-08-23T15:37:28.972Z,20.70
2022-08-23T15:40:11.692Z,21.00
2022-08-23T15:42:53.893Z,22.00
2022-08-23T15:45:37.169Z,20.60
2022-08-23T15:48:32.632Z,19.20
2022-08-23T15:51:16.569Z,21.20
2022-08-23T15:53:58.780Z,21.50
2022-08-23T15:56:45.591Z,21.40
2022-08-23T15:59:28.203Z,21.50
2022-08-23T16:02:10.324Z,20.60
2022-08-23T16:04:52.404Z,20.30
2022-08-23T16:07:34.709Z,22.50
2022-08-23T16:10:16.707Z,21.40
2022-08-23T16:12:58.720Z,20.10
2022-08-23T16:15:40.806Z,21.00
2022-08-23T16:18:22.704Z,20.30
2022-08-23T16:21:04.598Z,20.10
2022-08-23T16:23:46.803Z,22.30
2022-08-23T16:26:35.265Z,23.70
2022-08-23T16:29:19.042Z,24.30
2022-08-23T16:32:01.191Z,25.70
2022-08-23T16:34:43.087Z,22.80
2022-08-23T16:37:25.723Z,23.20
2022-08-23T16:40:09.391Z,25.10
2022-08-23T16:42:52.881Z,25.60
2022-08-23T16:45:34.895Z,26.80
2022-08-23T16:48:16.868Z,21.30
2022-08-23T16:50:58.864Z,20.70
2022-08-23T16:53:41.069Z,22.20
2022-08-23T16:56:23.066Z,21.60
2022-08-23T16:59:06.907Z,20.30
2022-08-23T17:01:53.451Z,20.20
2022-08-23T17:04:35.358Z,19.60
2022-08-23T17:07:17.305Z,20.00
2022-08-23T17:09:59.302Z,19.90
2022-08-23T17:12:55.023Z,19.90
2022-08-23T17:15:38.090Z,19.60
2022-08-23T17:18:20.043Z,21.30
2022-08-23T17:21:02.655Z,20.30
2022-08-23T17:23:44.606Z,18.30
2022-08-23T17:26:26.549Z,19.90
2022-08-23T17:29:09.674Z,19.40
2022-08-23T17:31:51.839Z,20.70
2022-08-23T17:34:34.182Z,21.10
2022-08-23T17:37:18.785Z,20.30
2022-08-23T17:40:00.943Z,20.50
2022-08-23T17:42:43.150Z,20.60
2022-08-23T17:45:26.536Z,20.50
2022-08-23T17:48:08.474Z,21.80
2022-08-23T17:50:50.573Z,22.60
2022-08-23T17:53:32.519Z,22.50
2022-08-23T17:56:14.571Z,22.40
2022-08-23T17:58:57.182Z,21.80
2022-08-23T18:01:39.488Z,23.70
2022-08-23T18:04:21.424Z,23.20
2022-08-23T18:07:04.201Z,24.50
2022-08-23T18:09:48.787Z,23.20
2022-08-23T18:12:30.963Z,23.70
2022-08-23T18:15:13.517Z,24.50
2022-08-23T18:17:58.338Z,24.90
2022-08-23T18:20:40.381Z,24.80
2022-08-23T18:23:22.333Z,25.40
2022-08-23T18:26:07.353Z,25.10
2022-08-23T18:28:49.812Z,25.00
2022-08-23T18:31:32.758Z,23.60
2022-08-23T18:34:16.367Z,25.00
2022-08-23T18:36:59.396Z,24.70
2022-08-23T18:39:41.917Z,24.20
2022-08-23T18:42:24.213Z,23.30
2022-08-23T18:45:07.539Z,25.00
2022-08-23T18:47:49.921Z,24.20
2022-08-23T18:50:31.916Z,24.10
2022-08-23T18:53:13.812Z,24.90
2022-08-23T18:55:55.936Z,23.60
2022-08-23T18:58:38.037Z,25.90
2022-08-23T19:01:27.821Z,26.40
2022-08-23T19:04:11.462Z,25.20
2022-08-23T19:06:54.332Z,24.90
2022-08-23T19:09:37.194Z,25.40
2022-08-23T19:12:19.190Z,24.50
2022-08-23T19:15:01.188Z,24.20
2022-08-23T19:17:43.801Z,24.30
2022-08-23T19:20:27.131Z,24.30
2022-08-23T19:23:09.230Z,24.30
2022-08-23T19:25:52.271Z,26.70
2022-08-23T19:28:34.607Z,24.90
2022-08-23T19:31:17.441Z,24.00
2022-08-23T19:33:59.988Z,24.10
2022-08-23T19:36:49.321Z,23.60
2022-08-23T19:39:35.701Z,25.00
2022-08-23T19:42:19.354Z,25.10
2022-08-23T19:45:06.617Z,26.60
2022-08-23T19:47:48.922Z,24.00
2022-08-23T19:50:32.763Z,24.80
2022-08-23T19:53:15.376Z,24.30
2022-08-23T19:56:02.188Z,23.50
2022-08-23T19:58:44.045Z,23.90
2022-08-23T20:01:26.230Z,22.80
2022-08-23T20:04:08.898Z,22.80
2022-08-23T20:06:51.307Z,23.70
2022-08-23T20:09:34.379Z,23.30
2022-08-23T20:12:17.555Z,23.00
2022-08-23T20:15:00.682Z,22.00
2022-08-23T20:17:42.679Z,22.40
2022-08-23T20:20:24.882Z,21.90
2022-08-23T20:23:25.517Z,22.70
2022-08-23T20:26:07.924Z,21.40
2022-08-23T20:28:59.182Z,20.90
2022-08-23T20:31:49.276Z,21.00
2022-08-23T20:34:31.327Z,20.50
2022-08-23T20:37:13.325Z,22.10
2022-08-23T20:39:55.493Z,21.60
2022-08-23T20:42:46.417Z,19.70
2022-08-23T20:45:29.354Z,19.90
2022-08-23T20:48:11.268Z,19.50
2022-08-23T20:50:53.250Z,19.90
2022-08-23T20:53:35.866Z,20.80
2022-08-23T20:56:18.167Z,19.50
2022-08-23T20:59:02.417Z,19.50
2022-08-23T21:01:44.679Z,18.80
2022-08-23T21:04:30.031Z,18.70
2022-08-23T21:07:12.610Z,18.90
2022-08-23T21:09:54.555Z,20.80
2022-08-23T21:13:01.176Z,19.00
2022-08-23T21:15:47.167Z,19.20
2022-08-23T21:18:29.685Z,19.70
2022-08-23T21:21:12.916Z,18.50
2022-08-23T21:23:57.265Z,19.10
2022-08-23T21:26:39.877Z,18.90
2022-08-23T21:29:22.185Z,19.60
2022-08-23T21:32:04.386Z,18.40
2022-08-23T21:34:46.294Z,18.20
2022-08-23T21:37:29.016Z,17.30
2022-08-23T21:40:11.665Z,20.10
2022-08-23T21:42:53.710Z,18.50
2022-08-23T21:45:35.607Z,18.30
2022-08-23T21:48:24.669Z,19.00
2022-08-23T21:51:06.507Z,19.50
2022-08-23T21:53:50.383Z,19.70
2022-08-23T21:56:32.815Z,18.80
2022-08-23T21:59:17.427Z,19.00
2022-08-23T22:01:59.512Z,19.20
2022-08-23T22:04:41.472Z,19.10
2022-08-23T22:07:23.416Z,19.60
2022-08-23T22:10:07.225Z,18.70
2022-08-23T22:12:49.412Z,19.80
2022-08-23T22:15:32.803Z,20.60
2022-08-23T22:18:14.740Z,18.40
2022-08-23T22:20:58.478Z,19.10
2022-08-23T22:23:44.967Z,19.20
2022-08-23T22:26:28.619Z,19.50
2022-08-23T22:29:12.358Z,20.30
2022-08-23T22:31:54.355Z,20.60
2022-08-23T22:34:36.354Z,20.30
2022-08-23T22:37:18.557Z,20.00
2022-08-23T22:40:00.730Z,18.20
2022-08-23T22:42:42.760Z,18.70
2022-08-23T22:45:24.657Z,18.80
2022-08-23T22:48:06.549Z,19.00
2022-08-23T22:50:48.855Z,20.60
2022-08-23T22:53:30.619Z,19.30
2022-08-23T22:56:15.974Z,19.60
2022-08-23T22:58:59.303Z,18.60
2022-08-23T23:01:44.868Z,19.00
2022-08-23T23:04:27.776Z,20.00
2022-08-23T23:07:09.753Z,19.20
2022-08-23T23:09:53.696Z,19.50
2022-08-23T23:12:35.639Z,18.90
2022-08-23T23:15:17.590Z,18.90
2022-08-23T23:17:59.536Z,19.00
2022-08-23T23:20:41.894Z,19.40
2022-08-23T23:23:23.994Z,22.10
2022-08-23T23:26:08.449Z,21.80
2022-08-23T23:28:50.346Z,20.80
2022-08-23T23:31:32.365Z,22.20
2022-08-23T23:34:14.755Z,23.00
2022-08-23T23:36:57.774Z,21.20
2022-08-23T23:39:39.669Z,20.50
2022-08-23T23:42:21.771Z,21.00
2022-08-23T23:45:04.690Z,21.90
2022-08-23T23:47:46.998Z,19.90
2022-08-23T23:50:28.892Z,21.00
2022-08-23T23:53:10.787Z,21.50
2022-08-23T23:56:04.560Z,20.10
2022-08-23T23:58:47.276Z,21.60
